sensor_id;sensor_type;location;lat;lon;timestamp;P1;durP1;ratioP1;P2;durP2;ratioP2
9918;SDS011;4998;51.024;13.828;2022-12-10T00:00:47;29.40;;;17.13;;
9918;SDS011;4998;51.024;13.828;2022-12-10T00:03:15;30.07;;;17.60;;
9918;SDS011;4998;51.024;13.828;2022-12-10T00:05:42;28.20;;;18.40;;
9918;SDS011;4998;51.024;13.828;2022-12-10T00:08:09;30.10;;;18.50;;
9918;SDS011;4998;51.024;13.828;2022-12-10T00:10:38;29.10;;;17.77;;
9918;SDS011;4998;51.024;13.828;2022-12-10T00:13:07;29.83;;;18.03;;
9918;SDS011;4998;51.024;13.828;2022-12-10T00:15:34;30.90;;;16.90;;
9918;SDS011;4998;51.024;13.828;2022-12-10T00:18:02;27.53;;;16.70;;
9918;SDS011;4998;51.024;13.828;2022-12-10T00:20:29;30.87;;;17.97;;
9918;SDS011;4998;51.024;13.828;2022-12-10T00:22:56;32.30;;;18.17;;
9918;SDS011;4998;51.024;13.828;2022-12-10T00:25:23;31.07;;;17.57;;
9918;SDS011;4998;51.024;13.828;2022-12-10T00:27:50;26.57;;;16.60;;
9918;SDS011;4998;51.024;13.828;2022-12-10T00:30:20;27.77;;;17.37;;
9918;SDS011;4998;51.024;13.828;2022-12-10T00:32:48;27.20;;;15.47;;
9918;SDS011;4998;51.024;13.828;2022-12-10T00:35:16;26.80;;;17.00;;
9918;SDS011;4998;51.024;13.828;2022-12-10T00:37:43;27.30;;;17.43;;
9918;SDS011;4998;51.024;13.828;2022-12-10T00:40:11;32.40;;;18.60;;
9918;SDS011;4998;51.024;13.828;2022-12-10T00:42:38;29.63;;;17.80;;
9918;SDS011;4998;51.024;13.828;2022-12-10T00:45:09;30.67;;;17.53;;
9918;SDS011;4998;51.024;13.828;2022-12-10T00:47:37;31.87;;;17.37;;
9918;SDS011;4998;51.024;13.828;2022-12-10T00:50:04;29.80;;;17.57;;
9918;SDS011;4998;51.024;13.828;2022-12-10T00:52:32;30.83;;;18.20;;
9918;SDS011;4998;51.024;13.828;2022-12-10T00:54:59;27.07;;;16.60;;
9918;SDS011;4998;51.024;13.828;2022-12-10T00:57:26;32.83;;;17.80;;
9918;SDS011;4998;51.024;13.828;2022-12-10T00:59:53;26.97;;;17.33;;
9918;SDS011;4998;51.024;13.828;2022-12-10T01:02:20;30.03;;;17.87;;
9918;SDS011;4998;51.024;13.828;2022-12-10T01:04:48;30.60;;;17.70;;
9918;SDS011;4998;51.024;13.828;2022-12-10T01:07:19;32.57;;;18.13;;
9918;SDS011;4998;51.024;13.828;2022-12-10T01:09:46;26.33;;;16.30;;
9918;SDS011;4998;51.024;13.828;2022-12-10T01:12:13;33.40;;;17.40;;
9918;SDS011;4998;51.024;13.828;2022-12-10T01:14:40;28.57;;;17.83;;
9918;SDS011;4998;51.024;13.828;2022-12-10T01:17:07;29.17;;;17.20;;
9918;SDS011;4998;51.024;13.828;2022-12-10T01:19:34;27.57;;;16.83;;
9918;SDS011;4998;51.024;13.828;2022-12-10T01:22:02;26.47;;;17.43;;
9918;SDS011;4998;51.024;13.828;2022-12-10T01:24:30;28.87;;;17.43;;
9918;SDS011;4998;51.024;13.828;2022-12-10T01:26:57;29.90;;;18.37;;
9918;SDS011;4998;51.024;13.828;2022-12-10T01:29:25;28.70;;;17.50;;
9918;SDS011;4998;51.024;13.828;2022-12-10T01:31:54;29.50;;;17.80;;
9918;SDS011;4998;51.024;13.828;2022-12-10T01:34:22;28.77;;;17.10;;
9918;SDS011;4998;51.024;13.828;2022-12-10T01:36:51;27.67;;;17.60;;
9918;SDS011;4998;51.024;13.828;2022-12-10T01:39:20;30.03;;;17.37;;
9918;SDS011;4998;51.024;13.828;2022-12-10T01:41:49;27.97;;;18.07;;
9918;SDS011;4998;51.024;13.828;2022-12-10T01:47:25;31.00;;;16.80;;
9918;SDS011;4998;51.024;13.828;2022-12-10T01:49:52;27.53;;;16.97;;
9918;SDS011;4998;51.024;13.828;2022-12-10T01:52:19;26.77;;;17.20;;
9918;SDS011;4998;51.024;13.828;2022-12-10T01:54:47;28.47;;;16.93;;
9918;SDS011;4998;51.024;13.828;2022-12-10T01:57:16;26.50;;;16.53;;
9918;SDS011;4998;51.024;13.828;2022-12-10T01:59:45;29.97;;;17.17;;
9918;SDS011;4998;51.024;13.828;2022-12-10T02:02:17;27.67;;;15.90;;
9918;SDS011;4998;51.024;13.828;2022-12-10T02:04:55;28.20;;;15.90;;
9918;SDS011;4998;51.024;13.828;2022-12-10T02:07:33;25.97;;;16.03;;
9918;SDS011;4998;51.024;13.828;2022-12-10T02:10:17;26.30;;;15.87;;
9918;SDS011;4998;51.024;13.828;2022-12-10T02:12:54;26.07;;;16.17;;
9918;SDS011;4998;51.024;13.828;2022-12-10T02:15:26;29.30;;;15.90;;
9918;SDS011;4998;51.024;13.828;2022-12-10T02:17:58;30.97;;;18.20;;
9918;SDS011;4998;51.024;13.828;2022-12-10T02:20:29;29.30;;;16.30;;
9918;SDS011;4998;51.024;13.828;2022-12-10T02:23:00;27.47;;;15.43;;
9918;SDS011;4998;51.024;13.828;2022-12-10T02:25:32;25.20;;;15.97;;
9918;SDS011;4998;51.024;13.828;2022-12-10T02:28:06;28.20;;;16.50;;
9918;SDS011;4998;51.024;13.828;2022-12-10T02:30:39;26.83;;;15.77;;
9918;SDS011;4998;51.024;13.828;2022-12-10T02:33:10;28.50;;;17.30;;
9918;SDS011;4998;51.024;13.828;2022-12-10T02:35:39;30.10;;;17.13;;
9918;SDS011;4998;51.024;13.828;2022-12-10T02:38:09;27.73;;;15.53;;
9918;SDS011;4998;51.024;13.828;2022-12-10T02:40:39;27.27;;;16.60;;
9918;SDS011;4998;51.024;13.828;2022-12-10T02:43:11;24.10;;;15.47;;
9918;SDS011;4998;51.024;13.828;2022-12-10T02:45:41;23.13;;;14.50;;
9918;SDS011;4998;51.024;13.828;2022-12-10T02:48:10;27.23;;;15.20;;
9918;SDS011;4998;51.024;13.828;2022-12-10T02:50:38;24.17;;;14.83;;
9918;SDS011;4998;51.024;13.828;2022-12-10T02:53:05;23.20;;;14.77;;
9918;SDS011;4998;51.024;13.828;2022-12-10T02:55:36;25.90;;;16.10;;
9918;SDS011;4998;51.024;13.828;2022-12-10T02:58:19;24.23;;;14.03;;
9918;SDS011;4998;51.024;13.828;2022-12-10T03:00:57;19.77;;;12.80;;
9918;SDS011;4998;51.024;13.828;2022-12-10T03:03:28;24.37;;;14.67;;
9918;SDS011;4998;51.024;13.828;2022-12-10T03:06:05;22.90;;;13.20;;
9918;SDS011;4998;51.024;13.828;2022-12-10T03:08:38;19.50;;;13.20;;
9918;SDS011;4998;51.024;13.828;2022-12-10T03:11:12;22.00;;;13.90;;
9918;SDS011;4998;51.024;13.828;2022-12-10T03:13:43;21.00;;;13.37;;
9918;SDS011;4998;51.024;13.828;2022-12-10T03:16:17;21.87;;;13.87;;
9918;SDS011;4998;51.024;13.828;2022-12-10T03:18:48;20.27;;;13.70;;
9918;SDS011;4998;51.024;13.828;2022-12-10T03:21:18;23.60;;;13.67;;
9918;SDS011;4998;51.024;13.828;2022-12-10T03:23:47;20.23;;;12.77;;
9918;SDS011;4998;51.024;13.828;2022-12-10T03:26:15;25.20;;;14.33;;
9918;SDS011;4998;51.024;13.828;2022-12-10T03:28:45;19.60;;;12.90;;
9918;SDS011;4998;51.024;13.828;2022-12-10T03:31:16;18.93;;;13.37;;
9918;SDS011;4998;51.024;13.828;2022-12-10T03:33:45;22.73;;;14.17;;
9918;SDS011;4998;51.024;13.828;2022-12-10T03:36:13;19.60;;;13.57;;
9918;SDS011;4998;51.024;13.828;2022-12-10T03:38:43;20.43;;;12.10;;
9918;SDS011;4998;51.024;13.828;2022-12-10T03:41:10;23.23;;;13.73;;
9918;SDS011;4998;51.024;13.828;2022-12-10T03:43:48;19.70;;;12.63;;
9918;SDS011;4998;51.024;13.828;2022-12-10T03:46:16;21.93;;;12.90;;
9918;SDS011;4998;51.024;13.828;2022-12-10T03:48:45;21.63;;;13.37;;
9918;SDS011;4998;51.024;13.828;2022-12-10T03:51:12;20.93;;;12.83;;
9918;SDS011;4998;51.024;13.828;2022-12-10T03:53:40;21.10;;;13.90;;
9918;SDS011;4998;51.024;13.828;2022-12-10T03:56:08;23.13;;;13.97;;
9918;SDS011;4998;51.024;13.828;2022-12-10T03:58:35;23.07;;;14.17;;
9918;SDS011;4998;51.024;13.828;2022-12-10T04:01:02;19.87;;;13.33;;
9918;SDS011;4998;51.024;13.828;2022-12-10T04:03:31;22.70;;;14.07;;
9918;SDS011;4998;51.024;13.828;2022-12-10T04:06:01;17.17;;;11.50;;
9918;SDS011;4998;51.024;13.828;2022-12-10T04:08:29;22.50;;;13.33;;
9918;SDS011;4998;51.024;13.828;2022-12-10T04:11:01;18.03;;;12.23;;
9918;SDS011;4998;51.024;13.828;2022-12-10T04:13:30;20.60;;;12.70;;
9918;SDS011;4998;51.024;13.828;2022-12-10T04:16:16;18.10;;;11.90;;
9918;SDS011;4998;51.024;13.828;2022-12-10T04:18:57;18.97;;;12.03;;
9918;SDS011;4998;51.024;13.828;2022-12-10T04:21:25;23.57;;;13.60;;
9918;SDS011;4998;51.024;13.828;2022-12-10T04:24:11;20.10;;;12.97;;
9918;SDS011;4998;51.024;13.828;2022-12-10T04:27:01;19.57;;;12.70;;
9918;SDS011;4998;51.024;13.828;2022-12-10T04:29:31;18.07;;;11.80;;
9918;SDS011;4998;51.024;13.828;2022-12-10T04:31:58;25.43;;;13.40;;
9918;SDS011;4998;51.024;13.828;2022-12-10T04:34:27;21.60;;;12.87;;
9918;SDS011;4998;51.024;13.828;2022-12-10T04:36:54;22.10;;;12.57;;
9918;SDS011;4998;51.024;13.828;2022-12-10T04:39:22;22.00;;;13.40;;
9918;SDS011;4998;51.024;13.828;2022-12-10T04:41:50;20.57;;;14.03;;
9918;SDS011;4998;51.024;13.828;2022-12-10T04:44:18;21.87;;;13.33;;
9918;SDS011;4998;51.024;13.828;2022-12-10T04:46:45;23.90;;;13.23;;
9918;SDS011;4998;51.024;13.828;2022-12-10T04:49:13;21.97;;;13.60;;
9918;SDS011;4998;51.024;13.828;2022-12-10T04:51:42;21.20;;;13.57;;
9918;SDS011;4998;51.024;13.828;2022-12-10T04:54:09;22.83;;;14.07;;
9918;SDS011;4998;51.024;13.828;2022-12-10T04:56:39;22.53;;;14.30;;
9918;SDS011;4998;51.024;13.828;2022-12-10T04:59:07;26.87;;;14.90;;
9918;SDS011;4998;51.024;13.828;2022-12-10T05:01:35;21.63;;;13.30;;
9918;SDS011;4998;51.024;13.828;2022-12-10T05:04:03;24.10;;;13.47;;
9918;SDS011;4998;51.024;13.828;2022-12-10T05:06:32;21.83;;;13.33;;
9918;SDS011;4998;51.024;13.828;2022-12-10T05:09:01;26.00;;;13.40;;
9918;SDS011;4998;51.024;13.828;2022-12-10T05:11:30;24.90;;;13.40;;
9918;SDS011;4998;51.024;13.828;2022-12-10T05:13:58;27.53;;;15.10;;
9918;SDS011;4998;51.024;13.828;2022-12-10T05:16:26;27.27;;;14.87;;
9918;SDS011;4998;51.024;13.828;2022-12-10T05:18:55;23.87;;;13.93;;
9918;SDS011;4998;51.024;13.828;2022-12-10T05:21:23;22.90;;;14.30;;
9918;SDS011;4998;51.024;13.828;2022-12-10T05:24:14;23.63;;;14.40;;
9918;SDS011;4998;51.024;13.828;2022-12-10T05:26:41;23.20;;;14.40;;
9918;SDS011;4998;51.024;13.828;2022-12-10T05:29:09;25.03;;;15.30;;
9918;SDS011;4998;51.024;13.828;2022-12-10T05:31:38;22.37;;;13.83;;
9918;SDS011;4998;51.024;13.828;2022-12-10T05:34:05;27.00;;;14.93;;
9918;SDS011;4998;51.024;13.828;2022-12-10T05:36:33;22.90;;;14.83;;
9918;SDS011;4998;51.024;13.828;2022-12-10T05:39:00;23.40;;;13.90;;
9918;SDS011;4998;51.024;13.828;2022-12-10T05:41:29;27.13;;;14.87;;
9918;SDS011;4998;51.024;13.828;2022-12-10T05:43:57;27.73;;;14.70;;
9918;SDS011;4998;51.024;13.828;2022-12-10T05:46:26;24.87;;;14.20;;
9918;SDS011;4998;51.024;13.828;2022-12-10T05:48:54;27.20;;;15.73;;
9918;SDS011;4998;51.024;13.828;2022-12-10T05:51:22;25.93;;;14.27;;
9918;SDS011;4998;51.024;13.828;2022-12-10T05:53:51;28.13;;;15.40;;
9918;SDS011;4998;51.024;13.828;2022-12-10T05:56:20;24.53;;;14.80;;
9918;SDS011;4998;51.024;13.828;2022-12-10T05:58:50;30.10;;;15.27;;
9918;SDS011;4998;51.024;13.828;2022-12-10T06:01:20;28.20;;;14.47;;
9918;SDS011;4998;51.024;13.828;2022-12-10T06:03:48;28.60;;;14.33;;
9918;SDS011;4998;51.024;13.828;2022-12-10T06:06:19;25.90;;;15.10;;
9918;SDS011;4998;51.024;13.828;2022-12-10T06:08:47;25.50;;;14.70;;
9918;SDS011;4998;51.024;13.828;2022-12-10T06:11:14;28.00;;;15.40;;
9918;SDS011;4998;51.024;13.828;2022-12-10T06:13:41;24.63;;;14.63;;
9918;SDS011;4998;51.024;13.828;2022-12-10T06:16:10;30.47;;;16.70;;
9918;SDS011;4998;51.024;13.828;2022-12-10T06:18:38;30.73;;;16.53;;
9918;SDS011;4998;51.024;13.828;2022-12-10T06:21:07;28.20;;;15.37;;
9918;SDS011;4998;51.024;13.828;2022-12-10T06:23:35;24.70;;;14.60;;
9918;SDS011;4998;51.024;13.828;2022-12-10T06:26:03;28.33;;;14.70;;
9918;SDS011;4998;51.024;13.828;2022-12-10T06:28:31;25.83;;;15.27;;
9918;SDS011;4998;51.024;13.828;2022-12-10T06:30:58;30.30;;;15.33;;
9918;SDS011;4998;51.024;13.828;2022-12-10T06:33:27;26.93;;;14.70;;
9918;SDS011;4998;51.024;13.828;2022-12-10T06:35:54;26.87;;;14.30;;
9918;SDS011;4998;51.024;13.828;2022-12-10T06:38:21;28.83;;;15.43;;
9918;SDS011;4998;51.024;13.828;2022-12-10T06:40:48;25.27;;;15.40;;
9918;SDS011;4998;51.024;13.828;2022-12-10T06:43:15;26.53;;;14.90;;
9918;SDS011;4998;51.024;13.828;2022-12-10T06:45:42;24.97;;;15.40;;
9918;SDS011;4998;51.024;13.828;2022-12-10T06:48:09;27.33;;;15.60;;
9918;SDS011;4998;51.024;13.828;2022-12-10T06:50:37;30.10;;;15.57;;
9918;SDS011;4998;51.024;13.828;2022-12-10T06:53:06;29.87;;;15.93;;
9918;SDS011;4998;51.024;13.828;2022-12-10T06:55:33;31.23;;;16.70;;
9918;SDS011;4998;51.024;13.828;2022-12-10T06:58:02;24.80;;;15.13;;
9918;SDS011;4998;51.024;13.828;2022-12-10T07:00:28;28.03;;;15.77;;
9918;SDS011;4998;51.024;13.828;2022-12-10T07:02:56;30.67;;;15.83;;
9918;SDS011;4998;51.024;13.828;2022-12-10T07:05:23;26.60;;;14.70;;
9918;SDS011;4998;51.024;13.828;2022-12-10T07:07:51;25.67;;;13.90;;
9918;SDS011;4998;51.024;13.828;2022-12-10T07:10:18;28.30;;;15.13;;
9918;SDS011;4998;51.024;13.828;2022-12-10T07:12:46;29.10;;;14.50;;
9918;SDS011;4998;51.024;13.828;2022-12-10T07:15:13;25.73;;;14.07;;
9918;SDS011;4998;51.024;13.828;2022-12-10T07:17:40;23.70;;;13.87;;
9918;SDS011;4998;51.024;13.828;2022-12-10T07:20:07;29.07;;;15.40;;
9918;SDS011;4998;51.024;13.828;2022-12-10T07:22:36;25.00;;;15.13;;
9918;SDS011;4998;51.024;13.828;2022-12-10T07:25:05;26.00;;;15.13;;
9918;SDS011;4998;51.024;13.828;2022-12-10T07:27:33;23.37;;;14.03;;
9918;SDS011;4998;51.024;13.828;2022-12-10T07:30:00;24.10;;;15.00;;
9918;SDS011;4998;51.024;13.828;2022-12-10T07:32:27;24.30;;;14.40;;
9918;SDS011;4998;51.024;13.828;2022-12-10T07:34:54;25.10;;;14.73;;
9918;SDS011;4998;51.024;13.828;2022-12-10T07:37:21;28.37;;;14.40;;
9918;SDS011;4998;51.024;13.828;2022-12-10T07:39:48;26.43;;;14.63;;
9918;SDS011;4998;51.024;13.828;2022-12-10T07:42:16;28.13;;;15.23;;
9918;SDS011;4998;51.024;13.828;2022-12-10T07:44:43;30.10;;;16.60;;
9918;SDS011;4998;51.024;13.828;2022-12-10T07:47:10;26.60;;;15.23;;
9918;SDS011;4998;51.024;13.828;2022-12-10T07:49:37;26.57;;;15.80;;
9918;SDS011;4998;51.024;13.828;2022-12-10T07:52:04;26.40;;;15.17;;
9918;SDS011;4998;51.024;13.828;2022-12-10T07:54:31;37.33;;;16.00;;
9918;SDS011;4998;51.024;13.828;2022-12-10T07:56:58;27.87;;;15.73;;
9918;SDS011;4998;51.024;13.828;2022-12-10T07:59:27;26.53;;;15.70;;
9918;SDS011;4998;51.024;13.828;2022-12-10T08:01:54;28.70;;;16.47;;
9918;SDS011;4998;51.024;13.828;2022-12-10T08:04:21;28.43;;;16.23;;
9918;SDS011;4998;51.024;13.828;2022-12-10T08:06:48;27.60;;;15.40;;
9918;SDS011;4998;51.024;13.828;2022-12-10T08:09:15;31.67;;;16.07;;
9918;SDS011;4998;51.024;13.828;2022-12-10T08:11:42;25.20;;;14.67;;
9918;SDS011;4998;51.024;13.828;2022-12-10T08:14:09;26.90;;;15.07;;
9918;SDS011;4998;51.024;13.828;2022-12-10T08:16:37;25.63;;;15.53;;
9918;SDS011;4998;51.024;13.828;2022-12-10T08:19:04;24.83;;;14.47;;
9918;SDS011;4998;51.024;13.828;2022-12-10T08:21:32;29.53;;;15.73;;
9918;SDS011;4998;51.024;13.828;2022-12-10T08:23:59;29.90;;;16.57;;
9918;SDS011;4998;51.024;13.828;2022-12-10T08:26:29;26.40;;;15.53;;
9918;SDS011;4998;51.024;13.828;2022-12-10T08:28:57;25.47;;;14.70;;
9918;SDS011;4998;51.024;13.828;2022-12-10T08:31:25;43.90;;;26.43;;
9918;SDS011;4998;51.024;13.828;2022-12-10T08:33:54;36.20;;;24.50;;
9918;SDS011;4998;51.024;13.828;2022-12-10T08:36:22;28.83;;;18.00;;
9918;SDS011;4998;51.024;13.828;2022-12-10T08:38:49;30.77;;;15.30;;
9918;SDS011;4998;51.024;13.828;2022-12-10T08:41:17;27.77;;;14.70;;
9918;SDS011;4998;51.024;13.828;2022-12-10T08:43:46;23.67;;;14.30;;
9918;SDS011;4998;51.024;13.828;2022-12-10T08:46:14;24.50;;;14.17;;
9918;SDS011;4998;51.024;13.828;2022-12-10T08:48:41;26.97;;;16.10;;
9918;SDS011;4998;51.024;13.828;2022-12-10T08:51:10;26.10;;;14.87;;
9918;SDS011;4998;51.024;13.828;2022-12-10T08:53:40;27.27;;;14.20;;
9918;SDS011;4998;51.024;13.828;2022-12-10T08:56:07;24.40;;;14.10;;
9918;SDS011;4998;51.024;13.828;2022-12-10T08:58:34;25.97;;;14.87;;
9918;SDS011;4998;51.024;13.828;2022-12-10T09:01:05;22.17;;;13.67;;
9918;SDS011;4998;51.024;13.828;2022-12-10T09:03:32;28.77;;;14.47;;
9918;SDS011;4998;51.024;13.828;2022-12-10T09:06:01;23.50;;;14.07;;
9918;SDS011;4998;51.024;13.828;2022-12-10T09:08:31;22.70;;;13.30;;
9918;SDS011;4998;51.024;13.828;2022-12-10T09:11:03;25.03;;;14.83;;
9918;SDS011;4998;51.024;13.828;2022-12-10T09:13:31;26.33;;;16.00;;
9918;SDS011;4998;51.024;13.828;2022-12-10T09:15:58;28.40;;;14.60;;
9918;SDS011;4998;51.024;13.828;2022-12-10T09:18:25;25.63;;;14.20;;
9918;SDS011;4998;51.024;13.828;2022-12-10T09:20:52;30.93;;;14.97;;
9918;SDS011;4998;51.024;13.828;2022-12-10T09:23:19;28.37;;;15.90;;
9918;SDS011;4998;51.024;13.828;2022-12-10T09:25:47;26.67;;;14.07;;
9918;SDS011;4998;51.024;13.828;2022-12-10T09:28:14;25.37;;;14.87;;
9918;SDS011;4998;51.024;13.828;2022-12-10T09:30:41;26.13;;;14.80;;
9918;SDS011;4998;51.024;13.828;2022-12-10T09:33:08;25.23;;;14.10;;
9918;SDS011;4998;51.024;13.828;2022-12-10T09:35:38;23.10;;;14.40;;
9918;SDS011;4998;51.024;13.828;2022-12-10T09:38:06;23.63;;;14.20;;
9918;SDS011;4998;51.024;13.828;2022-12-10T09:40:35;26.73;;;13.73;;
9918;SDS011;4998;51.024;13.828;2022-12-10T09:43:12;20.97;;;13.20;;
9918;SDS011;4998;51.024;13.828;2022-12-10T09:45:47;22.97;;;13.67;;
9918;SDS011;4998;51.024;13.828;2022-12-10T09:48:21;24.67;;;13.50;;
9918;SDS011;4998;51.024;13.828;2022-12-10T09:50:56;26.67;;;14.90;;
9918;SDS011;4998;51.024;13.828;2022-12-10T09:53:29;25.17;;;13.17;;
9918;SDS011;4998;51.024;13.828;2022-12-10T09:55:58;24.80;;;14.90;;
9918;SDS011;4998;51.024;13.828;2022-12-10T09:58:27;26.17;;;14.23;;
9918;SDS011;4998;51.024;13.828;2022-12-10T10:00:55;21.20;;;13.40;;
9918;SDS011;4998;51.024;13.828;2022-12-10T10:03:25;26.03;;;13.97;;
9918;SDS011;4998;51.024;13.828;2022-12-10T10:05:52;24.73;;;13.40;;
9918;SDS011;4998;51.024;13.828;2022-12-10T10:08:23;26.80;;;14.60;;
9918;SDS011;4998;51.024;13.828;2022-12-10T10:10:55;25.30;;;13.87;;
9918;SDS011;4998;51.024;13.828;2022-12-10T10:13:28;23.07;;;14.20;;
9918;SDS011;4998;51.024;13.828;2022-12-10T10:16:01;27.23;;;15.63;;
9918;SDS011;4998;51.024;13.828;2022-12-10T10:18:43;26.67;;;15.00;;
9918;SDS011;4998;51.024;13.828;2022-12-10T10:21:14;21.27;;;13.43;;
9918;SDS011;4998;51.024;13.828;2022-12-10T10:23:46;23.33;;;14.47;;
9918;SDS011;4998;51.024;13.828;2022-12-10T10:26:14;22.90;;;15.67;;
9918;SDS011;4998;51.024;13.828;2022-12-10T10:28:42;25.60;;;16.33;;
9918;SDS011;4998;51.024;13.828;2022-12-10T10:31:16;25.30;;;15.77;;
9918;SDS011;4998;51.024;13.828;2022-12-10T10:33:49;27.27;;;15.00;;
9918;SDS011;4998;51.024;13.828;2022-12-10T10:36:22;24.60;;;15.73;;
9918;SDS011;4998;51.024;13.828;2022-12-10T10:38:51;24.27;;;15.80;;
9918;SDS011;4998;51.024;13.828;2022-12-10T10:41:18;26.83;;;15.70;;
9918;SDS011;4998;51.024;13.828;2022-12-10T10:43:47;26.37;;;15.63;;
9918;SDS011;4998;51.024;13.828;2022-12-10T10:46:24;27.70;;;16.70;;
9918;SDS011;4998;51.024;13.828;2022-12-10T10:48:52;27.77;;;17.77;;
9918;SDS011;4998;51.024;13.828;2022-12-10T10:51:41;25.67;;;15.70;;
9918;SDS011;4998;51.024;13.828;2022-12-10T10:54:10;24.50;;;14.80;;
9918;SDS011;4998;51.024;13.828;2022-12-10T10:56:39;25.90;;;15.00;;
9918;SDS011;4998;51.024;13.828;2022-12-10T10:59:18;24.40;;;13.93;;
9918;SDS011;4998;51.024;13.828;2022-12-10T11:01:55;23.73;;;15.10;;
9918;SDS011;4998;51.024;13.828;2022-12-10T11:04:28;25.80;;;15.87;;
9918;SDS011;4998;51.024;13.828;2022-12-10T11:07:02;23.60;;;14.53;;
9918;SDS011;4998;51.024;13.828;2022-12-10T11:09:32;24.67;;;15.77;;
9918;SDS011;4998;51.024;13.828;2022-12-10T11:12:00;21.97;;;13.53;;
9918;SDS011;4998;51.024;13.828;2022-12-10T11:14:31;21.37;;;12.97;;
9918;SDS011;4998;51.024;13.828;2022-12-10T11:17:02;23.47;;;13.03;;
9918;SDS011;4998;51.024;13.828;2022-12-10T11:19:43;20.27;;;13.70;;
9918;SDS011;4998;51.024;13.828;2022-12-10T11:22:20;20.20;;;13.60;;
9918;SDS011;4998;51.024;13.828;2022-12-10T11:24:48;24.50;;;14.00;;
9918;SDS011;4998;51.024;13.828;2022-12-10T11:27:17;22.13;;;13.97;;
9918;SDS011;4998;51.024;13.828;2022-12-10T11:30:02;21.83;;;13.53;;
9918;SDS011;4998;51.024;13.828;2022-12-10T11:32:38;20.20;;;13.43;;
9918;SDS011;4998;51.024;13.828;2022-12-10T11:35:14;20.90;;;13.20;;
9918;SDS011;4998;51.024;13.828;2022-12-10T11:37:47;21.80;;;13.43;;
9918;SDS011;4998;51.024;13.828;2022-12-10T11:40:31;20.47;;;12.80;;
9918;SDS011;4998;51.024;13.828;2022-12-10T11:43:07;24.73;;;13.93;;
9918;SDS011;4998;51.024;13.828;2022-12-10T11:45:53;20.37;;;13.00;;
9918;SDS011;4998;51.024;13.828;2022-12-10T11:48:33;19.20;;;12.63;;
9918;SDS011;4998;51.024;13.828;2022-12-10T11:51:16;21.57;;;12.90;;
9918;SDS011;4998;51.024;13.828;2022-12-10T11:53:55;22.67;;;13.80;;
9918;SDS011;4998;51.024;13.828;2022-12-10T11:56:30;21.33;;;13.37;;
9918;SDS011;4998;51.024;13.828;2022-12-10T11:59:05;23.53;;;14.37;;
9918;SDS011;4998;51.024;13.828;2022-12-10T12:01:47;22.10;;;12.70;;
9918;SDS011;4998;51.024;13.828;2022-12-10T12:04:47;18.80;;;12.43;;
9918;SDS011;4998;51.024;13.828;2022-12-10T12:07:36;24.17;;;13.50;;
9918;SDS011;4998;51.024;13.828;2022-12-10T12:13:11;20.20;;;13.50;;
9918;SDS011;4998;51.024;13.828;2022-12-10T12:15:42;20.57;;;13.83;;
9918;SDS011;4998;51.024;13.828;2022-12-10T12:18:16;20.33;;;14.03;;
9918;SDS011;4998;51.024;13.828;2022-12-10T12:20:46;20.20;;;13.80;;
9918;SDS011;4998;51.024;13.828;2022-12-10T12:23:19;19.50;;;12.20;;
9918;SDS011;4998;51.024;13.828;2022-12-10T12:25:51;28.43;;;16.60;;
9918;SDS011;4998;51.024;13.828;2022-12-10T12:28:22;20.33;;;13.37;;
9918;SDS011;4998;51.024;13.828;2022-12-10T12:30:53;22.97;;;13.73;;
9918;SDS011;4998;51.024;13.828;2022-12-10T12:33:29;20.20;;;13.40;;
9918;SDS011;4998;51.024;13.828;2022-12-10T12:36:02;21.17;;;13.90;;
9918;SDS011;4998;51.024;13.828;2022-12-10T12:38:36;20.07;;;12.70;;
9918;SDS011;4998;51.024;13.828;2022-12-10T12:41:10;18.73;;;12.77;;
9918;SDS011;4998;51.024;13.828;2022-12-10T12:43:44;22.43;;;13.50;;
9918;SDS011;4998;51.024;13.828;2022-12-10T12:46:19;18.83;;;12.80;;
9918;SDS011;4998;51.024;13.828;2022-12-10T12:48:55;20.00;;;14.33;;
9918;SDS011;4998;51.024;13.828;2022-12-10T12:51:27;19.43;;;13.30;;
9918;SDS011;4998;51.024;13.828;2022-12-10T12:53:58;18.10;;;12.40;;
9918;SDS011;4998;51.024;13.828;2022-12-10T12:56:29;17.43;;;12.10;;
9918;SDS011;4998;51.024;13.828;2022-12-10T12:59:19;21.40;;;14.13;;
9918;SDS011;4998;51.024;13.828;2022-12-10T13:01:58;21.83;;;14.90;;
9918;SDS011;4998;51.024;13.828;2022-12-10T13:04:34;21.23;;;14.30;;
9918;SDS011;4998;51.024;13.828;2022-12-10T13:07:08;20.23;;;13.60;;
9918;SDS011;4998;51.024;13.828;2022-12-10T13:10:07;15.93;;;11.93;;
9918;SDS011;4998;51.024;13.828;2022-12-10T13:12:49;13.93;;;10.80;;
9918;SDS011;4998;51.024;13.828;2022-12-10T13:15:18;14.20;;;10.77;;
9918;SDS011;4998;51.024;13.828;2022-12-10T13:18:04;18.30;;;11.70;;
9918;SDS011;4998;51.024;13.828;2022-12-10T13:20:48;13.90;;;10.20;;
9918;SDS011;4998;51.024;13.828;2022-12-10T13:23:33;17.97;;;10.93;;
9918;SDS011;4998;51.024;13.828;2022-12-10T13:26:23;14.93;;;10.87;;
9918;SDS011;4998;51.024;13.828;2022-12-10T13:28:53;13.50;;;10.77;;
9918;SDS011;4998;51.024;13.828;2022-12-10T13:31:22;31.57;;;21.87;;
9918;SDS011;4998;51.024;13.828;2022-12-10T13:34:06;21.67;;;15.53;;
9918;SDS011;4998;51.024;13.828;2022-12-10T13:39:50;16.97;;;11.27;;
9918;SDS011;4998;51.024;13.828;2022-12-10T13:42:28;14.63;;;10.07;;
9918;SDS011;4998;51.024;13.828;2022-12-10T13:45:29;14.50;;;10.30;;
9918;SDS011;4998;51.024;13.828;2022-12-10T13:51:07;13.73;;;9.63;;
9918;SDS011;4998;51.024;13.828;2022-12-10T13:53:54;13.80;;;9.53;;
9918;SDS011;4998;51.024;13.828;2022-12-10T13:56:47;11.30;;;9.10;;
9918;SDS011;4998;51.024;13.828;2022-12-10T13:59:25;13.03;;;9.30;;
9918;SDS011;4998;51.024;13.828;2022-12-10T14:05:14;22.60;;;15.77;;
9918;SDS011;4998;51.024;13.828;2022-12-10T14:08:02;17.73;;;11.87;;
9918;SDS011;4998;51.024;13.828;2022-12-10T14:10:32;17.13;;;11.40;;
9918;SDS011;4998;51.024;13.828;2022-12-10T14:13:00;14.23;;;10.20;;
9918;SDS011;4998;51.024;13.828;2022-12-10T14:15:29;12.33;;;9.57;;
9918;SDS011;4998;51.024;13.828;2022-12-10T14:17:59;14.80;;;9.67;;
9918;SDS011;4998;51.024;13.828;2022-12-10T14:20:29;11.37;;;9.03;;
9918;SDS011;4998;51.024;13.828;2022-12-10T14:23:02;11.60;;;8.80;;
9918;SDS011;4998;51.024;13.828;2022-12-10T14:25:46;12.50;;;9.20;;
9918;SDS011;4998;51.024;13.828;2022-12-10T14:28:13;14.20;;;9.20;;
9918;SDS011;4998;51.024;13.828;2022-12-10T14:30:43;14.40;;;9.20;;
9918;SDS011;4998;51.024;13.828;2022-12-10T14:33:13;13.63;;;9.90;;
9918;SDS011;4998;51.024;13.828;2022-12-10T14:35:46;14.47;;;10.20;;
9918;SDS011;4998;51.024;13.828;2022-12-10T14:38:16;14.67;;;10.60;;
9918;SDS011;4998;51.024;13.828;2022-12-10T14:40:47;12.97;;;9.20;;
9918;SDS011;4998;51.024;13.828;2022-12-10T14:43:15;16.30;;;11.00;;
9918;SDS011;4998;51.024;13.828;2022-12-10T14:45:45;18.03;;;12.40;;
9918;SDS011;4998;51.024;13.828;2022-12-10T14:48:16;17.37;;;11.73;;
9918;SDS011;4998;51.024;13.828;2022-12-10T14:50:44;14.90;;;11.03;;
9918;SDS011;4998;51.024;13.828;2022-12-10T14:53:13;14.13;;;11.00;;
9918;SDS011;4998;51.024;13.828;2022-12-10T14:55:41;16.43;;;11.20;;
9918;SDS011;4998;51.024;13.828;2022-12-10T14:58:11;13.33;;;10.53;;
9918;SDS011;4998;51.024;13.828;2022-12-10T15:00:44;16.30;;;11.10;;
9918;SDS011;4998;51.024;13.828;2022-12-10T15:03:23;14.93;;;10.40;;
9918;SDS011;4998;51.024;13.828;2022-12-10T15:05:54;15.20;;;10.17;;
9918;SDS011;4998;51.024;13.828;2022-12-10T15:08:22;12.43;;;9.80;;
9918;SDS011;4998;51.024;13.828;2022-12-10T15:10:52;15.00;;;10.40;;
9918;SDS011;4998;51.024;13.828;2022-12-10T15:13:23;16.00;;;11.17;;